sensor_id;sensor_type;location;lat;lon;timestamp;temperature;humidity
71084;DHT22;58741;52.672;13.548;2022-11-15T00:01:48;3.60;96.60
71084;DHT22;58741;52.672;13.548;2022-11-15T00:04:33;3.60;96.70
71084;DHT22;58741;52.672;13.548;2022-11-15T00:07:18;3.50;96.60
71084;DHT22;58741;52.672;13.548;2022-11-15T00:10:02;3.50;96.60
71084;DHT22;58741;52.672;13.548;2022-11-15T00:12:47;3.40;96.60
71084;DHT22;58741;52.672;13.548;2022-11-15T00:15:31;3.40;96.60
71084;DHT22;58741;52.672;13.548;2022-11-15T00:18:15;3.40;96.70
71084;DHT22;58741;52.672;13.548;2022-11-15T00:21:05;3.40;96.70
71084;DHT22;58741;52.672;13.548;2022-11-15T00:23:50;3.30;96.70
71084;DHT22;58741;52.672;13.548;2022-11-15T00:26:33;3.30;96.70
71084;DHT22;58741;52.672;13.548;2022-11-15T00:29:17;3.30;96.70
71084;DHT22;58741;52.672;13.548;2022-11-15T00:32:01;3.20;96.70
71084;DHT22;58741;52.672;13.548;2022-11-15T00:34:45;3.20;96.70
71084;DHT22;58741;52.672;13.548;2022-11-15T00:37:30;3.20;96.70
71084;DHT22;58741;52.672;13.548;2022-11-15T00:40:14;3.20;96.70
71084;DHT22;58741;52.672;13.548;2022-11-15T00:42:59;3.10;96.70
71084;DHT22;58741;52.672;13.548;2022-11-15T00:45:43;3.10;96.70
71084;DHT22;58741;52.672;13.548;2022-11-15T00:48:27;3.10;96.80
71084;DHT22;58741;52.672;13.548;2022-11-15T00:51:12;3.10;96.90
71084;DHT22;58741;52.672;13.548;2022-11-15T00:53:56;3.10;96.90
71084;DHT22;58741;52.672;13.548;2022-11-15T00:56:40;3.00;96.90
71084;DHT22;58741;52.672;13.548;2022-11-15T00:59:24;3.00;97.00
71084;DHT22;58741;52.672;13.548;2022-11-15T01:02:08;3.00;97.00
71084;DHT22;58741;52.672;13.548;2022-11-15T01:04:52;3.00;97.30
71084;DHT22;58741;52.672;13.548;2022-11-15T01:07:36;3.00;97.00
71084;DHT22;58741;52.672;13.548;2022-11-15T01:10:21;3.00;97.10
71084;DHT22;58741;52.672;13.548;2022-11-15T01:13:05;3.00;97.10
71084;DHT22;58741;52.672;13.548;2022-11-15T01:15:49;3.00;97.10
71084;DHT22;58741;52.672;13.548;2022-11-15T01:18:33;3.00;97.10
71084;DHT22;58741;52.672;13.548;2022-11-15T01:21:18;2.90;97.00
71084;DHT22;58741;52.672;13.548;2022-11-15T01:24:03;2.90;97.00
71084;DHT22;58741;52.672;13.548;2022-11-15T01:26:47;2.90;97.10
71084;DHT22;58741;52.672;13.548;2022-11-15T01:29:31;2.90;97.10
71084;DHT22;58741;52.672;13.548;2022-11-15T01:32:15;2.90;97.00
71084;DHT22;58741;52.672;13.548;2022-11-15T01:35:00;2.90;97.10
71084;DHT22;58741;52.672;13.548;2022-11-15T01:37:43;2.90;97.10
71084;DHT22;58741;52.672;13.548;2022-11-15T01:40:28;2.80;97.20
71084;DHT22;58741;52.672;13.548;2022-11-15T01:43:22;2.80;97.70
71084;DHT22;58741;52.672;13.548;2022-11-15T01:46:28;2.80;97.60
71084;DHT22;58741;52.672;13.548;2022-11-15T01:49:15;2.80;97.70
71084;DHT22;58741;52.672;13.548;2022-11-15T01:52:02;2.80;97.80
71084;DHT22;58741;52.672;13.548;2022-11-15T01:54:50;2.80;98.10
71084;DHT22;58741;52.672;13.548;2022-11-15T01:57:35;2.90;98.30
71084;DHT22;58741;52.672;13.548;2022-11-15T02:00:20;2.90;98.90
71084;DHT22;58741;52.672;13.548;2022-11-15T02:03:04;2.90;98.70
71084;DHT22;58741;52.672;13.548;2022-11-15T02:05:49;2.90;98.70
71084;DHT22;58741;52.672;13.548;2022-11-15T02:08:34;2.90;98.90
71084;DHT22;58741;52.672;13.548;2022-11-15T02:11:18;2.90;98.80
71084;DHT22;58741;52.672;13.548;2022-11-15T02:14:04;3.00;99.30
71084;DHT22;58741;52.672;13.548;2022-11-15T02:17:13;3.00;99.50
71084;DHT22;58741;52.672;13.548;2022-11-15T02:20:23;3.00;99.40
71084;DHT22;58741;52.672;13.548;2022-11-15T02:33:21;3.00;99.20
71084;DHT22;58741;52.672;13.548;2022-11-15T02:36:15;3.00;99.20
71084;DHT22;58741;52.672;13.548;2022-11-15T02:39:23;3.00;99.10
71084;DHT22;58741;52.672;13.548;2022-11-15T02:42:16;3.00;99.00
71084;DHT22;58741;52.672;13.548;2022-11-15T02:45:35;3.00;99.00
71084;DHT22;58741;52.672;13.548;2022-11-15T02:48:21;3.00;98.90
71084;DHT22;58741;52.672;13.548;2022-11-15T02:51:06;3.00;98.90
71084;DHT22;58741;52.672;13.548;2022-11-15T02:53:51;2.90;98.90
71084;DHT22;58741;52.672;13.548;2022-11-15T02:56:35;2.90;99.10
71084;DHT22;58741;52.672;13.548;2022-11-15T03:05:34;2.90;99.40
71084;DHT22;58741;52.672;13.548;2022-11-15T03:08:31;2.90;99.20
71084;DHT22;58741;52.672;13.548;2022-11-15T03:11:18;2.90;99.10
71084;DHT22;58741;52.672;13.548;2022-11-15T03:14:25;2.90;99.10
71084;DHT22;58741;52.672;13.548;2022-11-15T03:17:19;2.90;99.30
71084;DHT22;58741;52.672;13.548;2022-11-15T03:20:08;2.90;99.10
71084;DHT22;58741;52.672;13.548;2022-11-15T03:22:56;2.90;98.90
71084;DHT22;58741;52.672;13.548;2022-11-15T03:25:47;2.90;98.90
71084;DHT22;58741;52.672;13.548;2022-11-15T03:28:52;2.80;98.90
71084;DHT22;58741;52.672;13.548;2022-11-15T03:31:40;2.80;99.10
71084;DHT22;58741;52.672;13.548;2022-11-15T03:34:39;2.80;99.00
71084;DHT22;58741;52.672;13.548;2022-11-15T03:40:29;2.80;99.10
71084;DHT22;58741;52.672;13.548;2022-11-15T03:43:41;2.80;99.10
71084;DHT22;58741;52.672;13.548;2022-11-15T03:46:57;2.80;99.20
71084;DHT22;58741;52.672;13.548;2022-11-15T03:49:50;2.80;99.20
71084;DHT22;58741;52.672;13.548;2022-11-15T03:52:36;2.70;99.10
71084;DHT22;58741;52.672;13.548;2022-11-15T03:55:21;2.70;99.20
71084;DHT22;58741;52.672;13.548;2022-11-15T03:58:06;2.70;98.80
71084;DHT22;58741;52.672;13.548;2022-11-15T04:00:50;2.70;98.70
71084;DHT22;58741;52.672;13.548;2022-11-15T04:03:34;2.70;98.60
71084;DHT22;58741;52.672;13.548;2022-11-15T04:06:18;2.70;98.90
71084;DHT22;58741;52.672;13.548;2022-11-15T04:09:02;2.60;98.90
71084;DHT22;58741;52.672;13.548;2022-11-15T04:11:46;2.60;99.10
71084;DHT22;58741;52.672;13.548;2022-11-15T04:14:31;2.60;99.50
71084;DHT22;58741;52.672;13.548;2022-11-15T04:17:15;2.70;99.70
71084;DHT22;58741;52.672;13.548;2022-11-15T04:19:58;2.70;99.50
71084;DHT22;58741;52.672;13.548;2022-11-15T04:23:07;2.70;99.20
71084;DHT22;58741;52.672;13.548;2022-11-15T04:26:14;2.60;98.90
71084;DHT22;58741;52.672;13.548;2022-11-15T04:29:00;2.60;98.70
71084;DHT22;58741;52.672;13.548;2022-11-15T04:32:04;2.60;98.50
71084;DHT22;58741;52.672;13.548;2022-11-15T04:34:48;2.60;98.50
71084;DHT22;58741;52.672;13.548;2022-11-15T04:37:32;2.50;98.40
71084;DHT22;58741;52.672;13.548;2022-11-15T04:40:16;2.50;98.30
71084;DHT22;58741;52.672;13.548;2022-11-15T04:43:00;2.50;98.20
71084;DHT22;58741;52.672;13.548;2022-11-15T04:45:44;2.40;98.20
71084;DHT22;58741;52.672;13.548;2022-11-15T04:48:29;2.40;98.20
71084;DHT22;58741;52.672;13.548;2022-11-15T04:51:13;2.40;98.20
71084;DHT22;58741;52.672;13.548;2022-11-15T04:53:57;2.40;98.30
71084;DHT22;58741;52.672;13.548;2022-11-15T04:56:41;2.30;98.10
71084;DHT22;58741;52.672;13.548;2022-11-15T04:59:25;2.30;98.20
71084;DHT22;58741;52.672;13.548;2022-11-15T05:02:09;2.30;98.10
71084;DHT22;58741;52.672;13.548;2022-11-15T05:04:53;2.30;98.10
71084;DHT22;58741;52.672;13.548;2022-11-15T05:07:37;2.30;98.10
71084;DHT22;58741;52.672;13.548;2022-11-15T05:10:22;2.20;98.10
71084;DHT22;58741;52.672;13.548;2022-11-15T05:13:06;2.20;98.10
71084;DHT22;58741;52.672;13.548;2022-11-15T05:15:50;2.20;98.10
71084;DHT22;58741;52.672;13.548;2022-11-15T05:18:34;2.20;98.10
71084;DHT22;58741;52.672;13.548;2022-11-15T05:21:18;2.20;98.10
71084;DHT22;58741;52.672;13.548;2022-11-15T05:24:02;2.10;98.00
71084;DHT22;58741;52.672;13.548;2022-11-15T05:26:47;2.10;98.10
71084;DHT22;58741;52.672;13.548;2022-11-15T05:29:31;2.10;98.10
71084;DHT22;58741;52.672;13.548;2022-11-15T05:32:16;2.10;98.10
71084;DHT22;58741;52.672;13.548;2022-11-15T05:35:01;2.10;98.10
71084;DHT22;58741;52.672;13.548;2022-11-15T05:37:46;2.10;98.10
71084;DHT22;58741;52.672;13.548;2022-11-15T05:40:30;2.10;98.20
71084;DHT22;58741;52.672;13.548;2022-11-15T05:43:15;2.10;98.10
71084;DHT22;58741;52.672;13.548;2022-11-15T05:45:59;2.00;98.10
71084;DHT22;58741;52.672;13.548;2022-11-15T05:48:47;2.00;98.10
71084;DHT22;58741;52.672;13.548;2022-11-15T05:51:33;2.00;98.20
71084;DHT22;58741;52.672;13.548;2022-11-15T05:54:18;2.00;98.20
71084;DHT22;58741;52.672;13.548;2022-11-15T05:57:04;2.00;98.20
71084;DHT22;58741;52.672;13.548;2022-11-15T05:59:49;2.00;98.10
71084;DHT22;58741;52.672;13.548;2022-11-15T06:02:34;2.00;98.10
71084;DHT22;58741;52.672;13.548;2022-11-15T06:05:19;2.00;98.20
71084;DHT22;58741;52.672;13.548;2022-11-15T06:08:03;2.00;98.30
71084;DHT22;58741;52.672;13.548;2022-11-15T06:10:47;1.90;98.30
71084;DHT22;58741;52.672;13.548;2022-11-15T06:13:31;2.00;98.20
71084;DHT22;58741;52.672;13.548;2022-11-15T06:16:16;1.90;98.30
71084;DHT22;58741;52.672;13.548;2022-11-15T06:19:00;1.90;98.20
71084;DHT22;58741;52.672;13.548;2022-11-15T06:21:45;1.90;98.20
71084;DHT22;58741;52.672;13.548;2022-11-15T06:24:29;1.90;98.30
71084;DHT22;58741;52.672;13.548;2022-11-15T06:27:13;1.90;98.20
71084;DHT22;58741;52.672;13.548;2022-11-15T06:29:57;1.90;98.20
71084;DHT22;58741;52.672;13.548;2022-11-15T06:32:41;1.90;98.30
71084;DHT22;58741;52.672;13.548;2022-11-15T06:35:25;1.90;98.30
71084;DHT22;58741;52.672;13.548;2022-11-15T06:38:10;1.90;98.30
71084;DHT22;58741;52.672;13.548;2022-11-15T06:40:54;1.90;98.30
71084;DHT22;58741;52.672;13.548;2022-11-15T06:43:38;1.90;98.30
71084;DHT22;58741;52.672;13.548;2022-11-15T06:46:22;1.80;98.30
71084;DHT22;58741;52.672;13.548;2022-11-15T06:49:06;1.90;98.40
71084;DHT22;58741;52.672;13.548;2022-11-15T06:51:50;1.90;98.40
71084;DHT22;58741;52.672;13.548;2022-11-15T06:54:34;1.90;98.40
71084;DHT22;58741;52.672;13.548;2022-11-15T06:57:18;1.90;98.40
71084;DHT22;58741;52.672;13.548;2022-11-15T07:00:04;1.90;98.30
71084;DHT22;58741;52.672;13.548;2022-11-15T07:02:48;1.90;98.30
71084;DHT22;58741;52.672;13.548;2022-11-15T07:05:32;1.90;98.40
71084;DHT22;58741;52.672;13.548;2022-11-15T07:08:17;1.90;98.40
71084;DHT22;58741;52.672;13.548;2022-11-15T07:11:03;1.90;98.40
71084;DHT22;58741;52.672;13.548;2022-11-15T07:13:47;1.90;98.50
71084;DHT22;58741;52.672;13.548;2022-11-15T07:16:31;2.00;98.60
71084;DHT22;58741;52.672;13.548;2022-11-15T07:19:15;2.00;98.70
71084;DHT22;58741;52.672;13.548;2022-11-15T07:21:59;2.10;98.80
71084;DHT22;58741;52.672;13.548;2022-11-15T07:24:44;2.10;99.00
71084;DHT22;58741;52.672;13.548;2022-11-15T07:27:27;2.10;99.10
71084;DHT22;58741;52.672;13.548;2022-11-15T07:30:12;2.20;99.10
71084;DHT22;58741;52.672;13.548;2022-11-15T07:32:58;2.20;99.30
71084;DHT22;58741;52.672;13.548;2022-11-15T07:35:42;2.30;99.40
71084;DHT22;58741;52.672;13.548;2022-11-15T07:38:27;2.30;99.60
71084;DHT22;58741;52.672;13.548;2022-11-15T07:41:11;2.40;99.90
71084;DHT22;58741;52.672;13.548;2022-11-15T07:43:55;2.50;99.90
71084;DHT22;58741;52.672;13.548;2022-11-15T07:46:39;2.60;99.90
71084;DHT22;58741;52.672;13.548;2022-11-15T07:49:23;2.80;99.90
71084;DHT22;58741;52.672;13.548;2022-11-15T07:52:07;2.90;99.90
71084;DHT22;58741;52.672;13.548;2022-11-15T07:54:51;3.00;99.90
71084;DHT22;58741;52.672;13.548;2022-11-15T07:57:35;3.10;99.90
71084;DHT22;58741;52.672;13.548;2022-11-15T08:00:20;3.30;99.90
71084;DHT22;58741;52.672;13.548;2022-11-15T08:03:09;3.40;99.90
71084;DHT22;58741;52.672;13.548;2022-11-15T08:05:53;3.60;99.90
71084;DHT22;58741;52.672;13.548;2022-11-15T08:08:37;3.80;99.90
71084;DHT22;58741;52.672;13.548;2022-11-15T08:11:21;4.00;99.90
71084;DHT22;58741;52.672;13.548;2022-11-15T08:14:05;4.20;99.90
71084;DHT22;58741;52.672;13.548;2022-11-15T08:16:49;4.30;99.90
71084;DHT22;58741;52.672;13.548;2022-11-15T08:19:33;4.50;99.90
71084;DHT22;58741;52.672;13.548;2022-11-15T08:22:18;4.70;99.90
71084;DHT22;58741;52.672;13.548;2022-11-15T08:25:02;4.90;99.90
71084;DHT22;58741;52.672;13.548;2022-11-15T08:27:46;5.00;99.90
71084;DHT22;58741;52.672;13.548;2022-11-15T08:30:33;5.20;99.90
71084;DHT22;58741;52.672;13.548;2022-11-15T08:33:18;5.40;99.90
71084;DHT22;58741;52.672;13.548;2022-11-15T08:36:02;5.60;99.90
71084;DHT22;58741;52.672;13.548;2022-11-15T08:38:46;5.80;99.90
71084;DHT22;58741;52.672;13.548;2022-11-15T08:41:35;6.00;99.90
71084;DHT22;58741;52.672;13.548;2022-11-15T08:44:20;6.20;99.90
71084;DHT22;58741;52.672;13.548;2022-11-15T08:47:04;6.30;99.90
71084;DHT22;58741;52.672;13.548;2022-11-15T08:49:49;6.50;99.90
71084;DHT22;58741;52.672;13.548;2022-11-15T08:52:33;6.70;99.90
71084;DHT22;58741;52.672;13.548;2022-11-15T08:55:17;6.90;99.90
71084;DHT22;58741;52.672;13.548;2022-11-15T08:58:02;7.00;99.90
71084;DHT22;58741;52.672;13.548;2022-11-15T09:00:46;7.20;99.90
71084;DHT22;58741;52.672;13.548;2022-11-15T09:03:31;7.40;99.90
71084;DHT22;58741;52.672;13.548;2022-11-15T09:06:15;7.60;99.90
71084;DHT22;58741;52.672;13.548;2022-11-15T09:09:00;7.70;99.90
71084;DHT22;58741;52.672;13.548;2022-11-15T09:11:45;7.90;99.90
71084;DHT22;58741;52.672;13.548;2022-11-15T09:14:29;8.00;99.40
71084;DHT22;58741;52.672;13.548;2022-11-15T09:17:13;8.10;99.40
71084;DHT22;58741;52.672;13.548;2022-11-15T09:19:57;8.30;98.70
71084;DHT22;58741;52.672;13.548;2022-11-15T09:22:41;8.40;98.90
71084;DHT22;58741;52.672;13.548;2022-11-15T09:25:25;8.60;98.90
71084;DHT22;58741;52.672;13.548;2022-11-15T09:28:09;8.70;98.30
71084;DHT22;58741;52.672;13.548;2022-11-15T09:30:57;8.80;97.90
71084;DHT22;58741;52.672;13.548;2022-11-15T09:33:45;9.00;97.80
71084;DHT22;58741;52.672;13.548;2022-11-15T09:36:29;9.10;97.40
71084;DHT22;58741;52.672;13.548;2022-11-15T09:39:13;9.20;97.20
71084;DHT22;58741;52.672;13.548;2022-11-15T09:42:15;9.40;95.90
71084;DHT22;58741;52.672;13.548;2022-11-15T09:45:17;9.50;96.40
71084;DHT22;58741;52.672;13.548;2022-11-15T09:51:47;9.70;96.30
71084;DHT22;58741;52.672;13.548;2022-11-15T09:54:43;9.90;96.40
71084;DHT22;58741;52.672;13.548;2022-11-15T10:00:04;10.10;96.00
71084;DHT22;58741;52.672;13.548;2022-11-15T10:05:32;10.30;95.40
71084;DHT22;58741;52.672;13.548;2022-11-15T10:08:06;10.50;95.30
71084;DHT22;58741;52.672;13.548;2022-11-15T10:13:02;10.70;94.70
71084;DHT22;58741;52.672;13.548;2022-11-15T10:15:28;10.80;94.70
71084;DHT22;58741;52.672;13.548;2022-11-15T10:20:50;11.10;94.00
71084;DHT22;58741;52.672;13.548;2022-11-15T10:23:20;11.20;94.00
71084;DHT22;58741;52.672;13.548;2022-11-15T10:25:47;11.30;93.50
71084;DHT22;58741;52.672;13.548;2022-11-15T10:28:27;11.40;92.90
71084;DHT22;58741;52.672;13.548;2022-11-15T10:30:54;11.60;92.90
71084;DHT22;58741;52.672;13.548;2022-11-15T10:33:35;11.70;91.60
71084;DHT22;58741;52.672;13.548;2022-11-15T10:41:42;12.00;92.10
71084;DHT22;58741;52.672;13.548;2022-11-15T10:46:44;12.20;91.40
71084;DHT22;58741;52.672;13.548;2022-11-15T10:49:21;12.40;91.10
71084;DHT22;58741;52.672;13.548;2022-11-15T10:51:55;12.40;90.00
71084;DHT22;58741;52.672;13.548;2022-11-15T10:54:40;12.50;90.60
71084;DHT22;58741;52.672;13.548;2022-11-15T10:57:12;12.60;90.50
71084;DHT22;58741;52.672;13.548;2022-11-15T10:59:39;12.70;90.20
71084;DHT22;58741;52.672;13.548;2022-11-15T11:02:31;12.80;90.50
71084;DHT22;58741;52.672;13.548;2022-11-15T11:04:58;13.00;90.30
71084;DHT22;58741;52.672;13.548;2022-11-15T11:07:30;13.00;89.50
71084;DHT22;58741;52.672;13.548;2022-11-15T11:10:18;13.10;89.20
71084;DHT22;58741;52.672;13.548;2022-11-15T11:12:43;13.20;87.50
71084;DHT22;58741;52.672;13.548;2022-11-15T11:15:12;13.20;88.10
71084;DHT22;58741;52.672;13.548;2022-11-15T11:17:58;13.30;87.60
71084;DHT22;58741;52.672;13.548;2022-11-15T11:20:47;13.30;87.20
71084;DHT22;58741;52.672;13.548;2022-11-15T11:37:24;13.80;86.60
71084;DHT22;58741;52.672;13.548;2022-11-15T11:40:19;13.80;86.90
71084;DHT22;58741;52.672;13.548;2022-11-15T11:43:14;13.90;85.40
71084;DHT22;58741;52.672;13.548;2022-11-15T11:48:40;14.10;85.90
71084;DHT22;58741;52.672;13.548;2022-11-15T11:53:47;14.30;82.40
71084;DHT22;58741;52.672;13.548;2022-11-15T11:56:34;14.30;83.30
71084;DHT22;58741;52.672;13.548;2022-11-15T11:59:22;14.40;82.80
71084;DHT22;58741;52.672;13.548;2022-11-15T12:01:51;14.50;82.70
71084;DHT22;58741;52.672;13.548;2022-11-15T12:04:29;14.50;81.40
71084;DHT22;58741;52.672;13.548;2022-11-15T12:10:04;14.70;81.20
71084;DHT22;58741;52.672;13.548;2022-11-15T12:12:45;14.80;81.90
71084;DHT22;58741;52.672;13.548;2022-11-15T12:15:24;14.70;80.30
71084;DHT22;58741;52.672;13.548;2022-11-15T12:17:51;14.70;80.10
71084;DHT22;58741;52.672;13.548;2022-11-15T12:20:23;14.60;81.00
71084;DHT22;58741;52.672;13.548;2022-11-15T12:22:58;14.50;80.70
71084;DHT22;58741;52.672;13.548;2022-11-15T12:25:33;14.40;80.50
71084;DHT22;58741;52.672;13.548;2022-11-15T12:30:53;14.20;81.10
71084;DHT22;58741;52.672;13.548;2022-11-15T12:33:42;14.10;81.10
71084;DHT22;58741;52.672;13.548;2022-11-15T12:36:12;13.90;82.10
71084;DHT22;58741;52.672;13.548;2022-11-15T12:38:56;13.90;82.00
71084;DHT22;58741;52.672;13.548;2022-11-15T12:41:27;13.80;82.20
71084;DHT22;58741;52.672;13.548;2022-11-15T12:43:53;13.70;82.80
71084;DHT22;58741;52.672;13.548;2022-11-15T13:00:01;13.30;84.10
71084;DHT22;58741;52.672;13.548;2022-11-15T13:02:35;13.30;84.80
71084;DHT22;58741;52.672;13.548;2022-11-15T13:27:50;12.80;86.40
71084;DHT22;58741;52.672;13.548;2022-11-15T13:30:21;12.80;86.30
71084;DHT22;58741;52.672;13.548;2022-11-15T13:32:48;12.70;86.60
71084;DHT22;58741;52.672;13.548;2022-11-15T13:35:28;12.70;86.80
71084;DHT22;58741;52.672;13.548;2022-11-15T13:37:55;12.70;86.90
71084;DHT22;58741;52.672;13.548;2022-11-15T13:40:27;12.60;87.00
71084;DHT22;58741;52.672;13.548;2022-11-15T13:42:56;12.60;87.10
71084;DHT22;58741;52.672;13.548;2022-11-15T13:45:23;12.50;87.30
71084;DHT22;58741;52.672;13.548;2022-11-15T13:47:56;12.50;87.30
71084;DHT22;58741;52.672;13.548;2022-11-15T13:50:26;12.40;87.60
71084;DHT22;58741;52.672;13.548;2022-11-15T13:52:57;12.40;87.90
71084;DHT22;58741;52.672;13.548;2022-11-15T13:55:24;12.30;88.00
71084;DHT22;58741;52.672;13.548;2022-11-15T13:57:56;12.30;88.20
71084;DHT22;58741;52.672;13.548;2022-11-15T14:00:44;12.20;88.10
71084;DHT22;58741;52.672;13.548;2022-11-15T14:03:18;12.20;88.60
71084;DHT22;58741;52.672;13.548;2022-11-15T14:06:01;12.10;88.70
71084;DHT22;58741;52.672;13.548;2022-11-15T14:08:28;12.10;88.90
71084;DHT22;58741;52.672;13.548;2022-11-15T14:11:18;12.10;89.10
71084;DHT22;58741;52.672;13.548;2022-11-15T14:14:22;12.00;89.10
71084;DHT22;58741;52.672;13.548;2022-11-15T14:16:51;12.00;89.30
71084;DHT22;58741;52.672;13.548;2022-11-15T14:22:09;11.90;89.70
71084;DHT22;58741;52.672;13.548;2022-11-15T14:24:35;11.80;89.80
71084;DHT22;58741;52.672;13.548;2022-11-15T14:27:19;11.80;90.00
71084;DHT22;58741;52.672;13.548;2022-11-15T14:29:45;11.70;90.00
71084;DHT22;58741;52.672;13.548;2022-11-15T14:32:22;11.70;90.10
71084;DHT22;58741;52.672;13.548;2022-11-15T14:34:49;11.60;90.20
71084;DHT22;58741;52.672;13.548;2022-11-15T14:37:21;11.60;90.30
71084;DHT22;58741;52.672;13.548;2022-11-15T14:39:48;11.50;90.30
71084;DHT22;58741;52.672;13.548;2022-11-15T14:42:13;11.50;90.40
71084;DHT22;58741;52.672;13.548;2022-11-15T14:44:39;11.40;90.40
71084;DHT22;58741;52.672;13.548;2022-11-15T14:47:04;11.40;90.50
71084;DHT22;58741;52.672;13.548;2022-11-15T14:49:30;11.30;90.40
71084;DHT22;58741;52.672;13.548;2022-11-15T14:51:55;11.20;90.50
71084;DHT22;58741;52.672;13.548;2022-11-15T14:54:21;11.10;90.60
71084;DHT22;58741;52.672;13.548;2022-11-15T14:56:46;11.10;90.60
71084;DHT22;58741;52.672;13.548;2022-11-15T14:59:12;11.00;90.60
71084;DHT22;58741;52.672;13.548;2022-11-15T15:01:37;10.90;90.70
71084;DHT22;58741;52.672;13.548;2022-11-15T15:04:03;10.80;90.70
71084;DHT22;58741;52.672;13.548;2022-11-15T15:06:28;10.70;90.70
71084;DHT22;58741;52.672;13.548;2022-11-15T15:08:56;10.60;90.80
71084;DHT22;58741;52.672;13.548;2022-11-15T15:11:25;10.60;90.80
71084;DHT22;58741;52.672;13.548;2022-11-15T15:13:51;10.50;90.80
71084;DHT22;58741;52.672;13.548;2022-11-15T15:16:18;10.40;90.80
71084;DHT22;58741;52.672;13.548;2022-11-15T15:18:44;10.30;90.80
71084;DHT22;58741;52.672;13.548;2022-11-15T15:21:22;10.30;90.80
71084;DHT22;58741;52.672;13.548;2022-11-15T15:23:48;10.10;90.80
71084;DHT22;58741;52.672;13.548;2022-11-15T15:26:14;10.00;90.90
71084;DHT22;58741;52.672;13.548;2022-11-15T15:28:39;10.00;91.00
71084;DHT22;58741;52.672;13.548;2022-11-15T15:31:05;9.90;91.10
71084;DHT22;58741;52.672;13.548;2022-11-15T15:33:31;9.80;91.10
71084;DHT22;58741;52.672;13.548;2022-11-15T15:35:57;9.70;91.50
71084;DHT22;58741;52.672;13.548;2022-11-15T15:38:23;9.70;91.20
71084;DHT22;58741;52.672;13.548;2022-11-15T15:40:48;9.60;91.30
71084;DHT22;58741;52.672;13.548;2022-11-15T15:43:14;9.50;91.40
71084;DHT22;58741;52.672;13.548;2022-11-15T15:45:41;9.40;91.40
71084;DHT22;58741;52.672;13.548;2022-11-15T15:48:12;9.30;91.50
71084;DHT22;58741;52.672;13.548;2022-11-15T15:50:38;9.30;91.50
71084;DHT22;58741;52.672;13.548;2022-11-15T15:53:04;9.20;91.50
71084;DHT22;58741;52.672;13.548;2022-11-15T15:55:31;9.10;91.60
71084;DHT22;58741;52.672;13.548;2022-11-15T15:57:57;9.10;91.60
71084;DHT22;58741;52.672;13.548;2022-11-15T16:00:24;9.00;91.70
71084;DHT22;58741;52.672;13.548;2022-11-15T16:02:50;8.90;91.80
71084;DHT22;58741;52.672;13.548;2022-11-15T16:05:16;8.80;92.00
71084;DHT22;58741;52.672;13.548;2022-11-15T16:07:43;8.70;92.10
71084;DHT22;58741;52.672;13.548;2022-11-15T16:10:25;8.70;92.10
71084;DHT22;58741;52.672;13.548;2022-11-15T16:12:52;8.60;92.20
71084;DHT22;58741;52.672;13.548;2022-11-15T16:15:18;8.50;92.30
71084;DHT22;58741;52.672;13.548;2022-11-15T16:17:48;8.50;92.50
71084;DHT22;58741;52.672;13.548;2022-11-15T16:20:44;8.40;92.50
71084;DHT22;58741;52.672;13.548;2022-11-15T16:23:17;8.30;92.70
71084;DHT22;58741;52.672;13.548;2022-11-15T16:25:48;8.20;92.80
71084;DHT22;58741;52.672;13.548;2022-11-15T16:30:42;8.20;92.90
71084;DHT22;58741;52.672;13.548;2022-11-15T16:33:07;8.10;92.90
71084;DHT22;58741;52.672;13.548;2022-11-15T16:35:33;8.00;92.90
71084;DHT22;58741;52.672;13.548;2022-11-15T16:37:58;8.00;92.90
71084;DHT22;58741;52.672;13.548;2022-11-15T16:40:32;7.90;92.90
71084;DHT22;58741;52.672;13.548;2022-11-15T16:42:59;7.90;93.10
71084;DHT22;58741;52.672;13.548;2022-11-15T16:45:27;7.80;93.00
71084;DHT22;58741;52.672;13.548;2022-11-15T16:47:54;7.80;93.00
71084;DHT22;58741;52.672;13.548;2022-11-15T16:50:22;7.70;93.10
71084;DHT22;58741;52.672;13.548;2022-11-15T16:52:54;7.70;93.10
71084;DHT22;58741;52.672;13.548;2022-11-15T16:55:22;7.60;93.20
71084;DHT22;58741;52.672;13.548;2022-11-15T16:57:48;7.50;93.30
71084;DHT22;58741;52.672;13.548;2022-11-15T17:00:15;7.50;93.40
71084;DHT22;58741;52.672;13.548;2022-11-15T17:02:45;7.40;93.50
71084;DHT22;58741;52.672;13.548;2022-11-15T17:05:12;7.40;93.60
71084;DHT22;58741;52.672;13.548;2022-11-15T17:07:39;7.30;93.80
71084;DHT22;58741;52.672;13.548;2022-11-15T17:10:05;7.20;93.90
71084;DHT22;58741;52.672;13.548;2022-11-15T17:12:33;7.20;94.00
71084;DHT22;58741;52.672;13.548;2022-11-15T17:14:59;7.10;94.10
71084;DHT22;58741;52.672;13.548;2022-11-15T17:17:24;7.10;94.10
71084;DHT22;58741;52.672;13.548;2022-11-15T17:19:51;7.10;94.30
71084;DHT22;58741;52.672;13.548;2022-11-15T17:22:18;7.00;94.60
71084;DHT22;58741;52.672;13.548;2022-11-15T17:24:44;7.00;94.80
71084;DHT22;58741;52.672;13.548;2022-11-15T17:27:09;6.90;94.90
71084;DHT22;58741;52.672;13.548;2022-11-15T17:29:35;6.90;94.90
71084;DHT22;58741;52.672;13.548;2022-11-15T17:32:00;6.90;95.20
71084;DHT22;58741;52.672;13.548;2022-11-15T17:34:26;6.80;95.30
71084;DHT22;58741;52.672;13.548;2022-11-15T17:36:51;6.90;95.30
71084;DHT22;58741;52.672;13.548;2022-11-15T17:39:17;6.90;95.50
71084;DHT22;58741;52.672;13.548;2022-11-15T17:41:45;6.80;95.70
71084;DHT22;58741;52.672;13.548;2022-11-15T17:44:11;6.80;95.70
71084;DHT22;58741;52.672;13.548;2022-11-15T17:46:36;6.80;95.80
71084;DHT22;58741;52.672;13.548;2022-11-15T17:49:02;6.80;96.10
71084;DHT22;58741;52.672;13.548;2022-11-15T17:51:28;6.80;96.30
71084;DHT22;58741;52.672;13.548;2022-11-15T17:53:54;6.80;96.40
71084;DHT22;58741;52.672;13.548;2022-11-15T17:56:22;6.70;96.30
71084;DHT22;58741;52.672;13.548;2022-11-15T17:58:51;6.70;96.50
71084;DHT22;58741;52.672;13.548;2022-11-15T18:01:35;6.70;96.60
71084;DHT22;58741;52.672;13.548;2022-11-15T18:04:02;6.70;96.70
71084;DHT22;58741;52.672;13.548;2022-11-15T18:06:31;6.70;96.70
71084;DHT22;58741;52.672;13.548;2022-11-15T18:08:57;6.70;96.90
71084;DHT22;58741;52.672;13.548;2022-11-15T18:11:27;6.70;96.90
71084;DHT22;58741;52.672;13.548;2022-11-15T18:13:54;6.70;97.10
71084;DHT22;58741;52.672;13.548;2022-11-15T18:16:23;6.70;97.30
71084;DHT22;58741;52.672;13.548;2022-11-15T18:18:50;6.70;97.20
71084;DHT22;58741;52.672;13.548;2022-11-15T18:21:19;6.70;97.50
71084;DHT22;58741;52.672;13.548;2022-11-15T18:23:46;6.70;97.60
71084;DHT22;58741;52.672;13.548;2022-11-15T18:26:14;6.70;97.80
71084;DHT22;58741;52.672;13.548;2022-11-15T18:28:42;6.70;97.70
71084;DHT22;58741;52.672;13.548;2022-11-15T18:31:15;6.70;97.80
71084;DHT22;58741;52.672;13.548;2022-11-15T18:33:41;6.80;97.90